Amityville, New York
Current Conditions -  °F | °C
As of 9:53 AM on Saturday 01 Nov 2014 (Local Time) from KFRG Reporting Station
Light Rain Light Rain  
Wind Chill: 37°   Ceiling: 6000
Heat Index: 45°   Visibility: 10mi
Dew Point: 39°   Wind: 18mph
Humidity: 80%   Direction: 10°N
Pressure: 29.79"   Gusts: 30mph
Location:  40.68°N, 73.42°W
Report Text: KFRG 011353Z 01016G26KT 10SM -RA OVC060 07/04 A2979 RMK AO2 PK WND 02026/1344 SLP087 P0006 T00720039
Loading
Personal Weather Stations






























Interactive Weather Map
Tropical Storm Tracking
New forecast layout! Learn more

10-Day Weather Forecast

Advertisements
Track Severe Weather on mobile